Time;durP1;ratioP1;P1;durP2;ratioP2;P2;SDS_P1;SDS_P2;PMS_P1;PMS_P2;Temp;Humidity;BMP_temperature;BMP_pressure;BME280_temperature;BME280_humidity;BME280_pressure;Samples;Min_cycle;Max_cycle;Signal;HPM_P1;HPM_P2
2022/12/15 00:40:30;;;;;;;;;;;;;;;-4.94;81.25;100632.72;5079419;28;20394;-61
2022/12/15 00:42:55;;;;;;;;;;;;;;;-4.99;81.17;100630.38;5081803;28;19917;-61
2022/12/15 00:46:53;;;;;;;;;;;;;;;-5.03;81.17;100635.78;5087706;28;19923;-61
2022/12/15 00:48:06;;;;;;;;;;;;;;;-5.04;81.30;100639.28;5086952;28;19919;-61
2022/12/15 01:20:34;;;;;;;;;;;;;;;-5.12;82.32;100644.88;5087298;28;19919;-60
2022/12/15 01:22:59;;;;;;;;;;;;;;;-5.06;82.34;100652.31;5085357;28;19916;-62
2022/12/15 01:25:24;;;;;;;;;;;;;;;-5.07;82.34;100650.66;5079987;28;20069;-61
2022/12/15 01:27:50;;;;;;;;;;;;;;;-5.10;82.12;100657.72;5079203;28;20069;-61
2022/12/15 01:30:17;;;;;;;;;;;;;;;-5.15;82.34;100657.97;5097507;28;19927;-61
2022/12/15 01:32:42;;;;;;;;;;;;;;;-5.19;82.14;100665.97;5082703;28;19916;-60
2022/12/15 01:35:07;;;;;;;;;;;;;;;-5.21;82.42;100676.34;5085431;28;19930;-61
2022/12/15 01:37:33;;;;;;;;;;;;;;;-5.19;82.45;100679.75;5081669;28;19928;-60
2022/12/15 01:42:42;;;;;;;;;;;;;;;-5.10;82.55;100681.03;5089796;28;19969;-60
2022/12/15 01:45:22;;;;;;;;;;;;;;;-5.07;82.53;100679.13;5089333;28;19912;-61
2022/12/15 01:47:47;;;;;;;;;;;;;;;-5.05;82.38;100676.47;5089448;28;20000;-61
2022/12/15 01:50:13;;;;;;;;;;;;;;;-5.04;82.38;100688.50;5081912;28;19951;-60
2022/12/15 01:52:38;;;;;;;;;;;;;;;-5.05;82.30;100679.88;5105494;28;20010;-61
2022/12/15 01:55:04;;;;;;;;;;;;;;;-5.07;82.32;100675.69;5086668;28;20053;-61
2022/12/15 01:57:31;;;;;;;;;;;;;;;-5.09;82.42;100678.38;5089555;28;19916;-59
2022/12/15 01:59:58;;;;;;;;;;;;;;;-5.10;82.55;100681.03;5081410;28;20372;-60
2022/12/15 02:02:25;;;;;;;;;;;;;;;-5.14;82.57;100680.34;5093679;28;19950;-60
2022/12/15 02:04:51;;;;;;;;;;;;;;;-5.18;82.61;100678.81;5083352;28;19927;-59
2022/12/15 02:07:17;;;;;;;;;;;;;;;-5.19;82.70;100691.84;5082937;28;20272;-61
2022/12/15 02:09:44;;;;;;;;;;;;;;;-5.18;82.86;100689.19;5083416;28;19978;-61
2022/12/15 02:12:09;;;;;;;;;;;;;;;-5.15;82.73;100701.13;5086229;28;19916;-61
2022/12/15 02:14:34;;;;;;;;;;;;;;;-5.18;82.67;100688.34;5088055;28;19992;-58
2022/12/15 02:17:04;;;;;;;;;;;;;;;-5.17;82.76;100695.19;5089056;28;19916;-60
2022/12/15 02:19:29;;;;;;;;;;;;;;;-5.16;82.80;100697.72;5086693;28;19920;-61
2022/12/15 02:22:33;;;;;;;;;;;;;;;-5.16;83.15;100696.88;5087624;28;19969;-61
2022/12/15 02:25:09;;;;;;;;;;;;;;;-5.25;82.99;100700.72;5064964;28;20445;-61
2022/12/15 02:27:52;;;;;;;;;;;;;;;-5.30;82.96;100705.28;5065802;28;19948;-61
2022/12/15 02:30:33;;;;;;;;;;;;;;;-5.35;83.04;100710.69;5077617;28;19959;-61
2022/12/15 02:33:02;;;;;;;;;;;;;;;-5.40;83.30;100707.47;5084585;28;19916;-62
2022/12/15 02:35:27;;;;;;;;;;;;;;;-5.40;83.42;100707.47;5087027;28;19919;-60
2022/12/15 02:37:52;;;;;;;;;;;;;;;-5.39;83.46;100709.16;5091430;28;19924;-60
2022/12/15 02:40:17;;;;;;;;;;;;;;;-5.37;83.70;100709.06;5076722;28;19924;-59
2022/12/15 02:42:45;;;;;;;;;;;;;;;-5.39;83.60;100710.91;5091537;28;19918;-62
2022/12/15 02:45:12;;;;;;;;;;;;;;;-5.41;83.62;100710.97;5080874;28;19999;-59
2022/12/15 02:47:45;;;;;;;;;;;;;;;-5.42;83.72;100709.28;5078311;28;20604;-61
2022/12/15 02:50:10;;;;;;;;;;;;;;;-5.40;83.79;100712.66;5087628;28;20402;-61
2022/12/15 02:52:52;;;;;;;;;;;;;;;-5.38;83.80;100705.66;5088204;28;20384;-61
2022/12/15 02:55:26;;;;;;;;;;;;;;;-5.35;83.94;100702.06;5078204;28;19920;-60
2022/12/15 02:57:54;;;;;;;;;;;;;;;-5.32;83.76;100709.69;5082520;28;19916;-61
2022/12/15 03:00:21;;;;;;;;;;;;;;;-5.28;83.90;100711.22;5083293;28;19976;-61
2022/12/15 03:02:48;;;;;;;;;;;;;;;-5.28;83.74;100716.38;5077699;28;19921;-60
2022/12/15 03:05:15;;;;;;;;;;;;;;;-5.27;83.74;100719.81;5090209;28;20299;-60
2022/12/15 03:07:41;;;;;;;;;;;;;;;-5.28;83.96;100718.97;5092891;28;20383;-60
2022/12/15 03:10:08;;;;;;;;;;;;;;;-5.25;83.79;100728.34;5085297;28;20367;-61
2022/12/15 03:12:33;;;;;;;;;;;;;;;-5.24;83.87;100715.34;5081540;28;19967;-60
2022/12/15 03:14:58;;;;;;;;;;;;;;;-5.23;84.06;100722.19;5079343;28;20415;-60
2022/12/15 03:17:23;;;;;;;;;;;;;;;-5.28;84.03;100720.72;5087445;28;19966;-61
2022/12/15 03:19:48;;;;;;;;;;;;;;;-5.32;84.07;100712.28;5081972;28;20276;-60
2022/12/15 03:22:13;;;;;;;;;;;;;;;-5.35;83.99;100718.44;5087027;28;19969;-60
2022/12/15 03:24:39;;;;;;;;;;;;;;;-5.38;84.11;100723.75;5088487;28;19998;-60
2022/12/15 03:27:04;;;;;;;;;;;;;;;-5.43;84.29;100725.72;5088286;28;19963;-61
2022/12/15 03:29:29;;;;;;;;;;;;;;;-5.44;84.41;100730.97;5081149;28;20051;-59
2022/12/15 03:31:54;;;;;;;;;;;;;;;-5.41;84.35;100730.84;5088400;28;20383;-60
2022/12/15 03:34:19;;;;;;;;;;;;;;;-5.38;84.35;100725.50;5085151;28;19924;-60
2022/12/15 03:36:45;;;;;;;;;;;;;;;-5.36;84.26;100732.28;5083778;28;19966;-63
2022/12/15 03:39:10;;;;;;;;;;;;;;;-5.35;84.24;100735.72;5090640;28;19928;-60
2022/12/15 03:41:35;;;;;;;;;;;;;;;-5.34;84.38;100737.38;5083736;28;19916;-59
2022/12/15 03:44:00;;;;;;;;;;;;;;;-5.37;84.19;100738.38;5080728;28;20370;-61
2022/12/15 03:46:26;;;;;;;;;;;;;;;-5.45;84.20;100735.31;5079984;28;19920;-60
2022/12/15 03:48:51;;;;;;;;;;;;;;;-5.50;84.32;100734.66;5080571;28;19917;-60
2022/12/15 03:51:16;;;;;;;;;;;;;;;-5.55;84.53;100734.03;5085623;28;19912;-60
2022/12/15 03:53:42;;;;;;;;;;;;;;;-5.57;84.66;100737.63;5087987;28;20406;-63
2022/12/15 03:56:07;;;;;;;;;;;;;;;-5.59;84.80;100739.44;5079508;28;19916;-59
2022/12/15 03:58:32;;;;;;;;;;;;;;;-5.58;84.82;100746.28;5083876;28;19930;-62
2022/12/15 04:00:57;;;;;;;;;;;;;;;-5.58;85.06;100743.69;5085506;28;20279;-60
2022/12/15 04:03:22;;;;;;;;;;;;;;;-5.61;85.06;100747.28;5096413;28;19973;-61
2022/12/15 04:05:48;;;;;;;;;;;;;;;-5.63;85.17;100731.81;5089550;28;19916;-60
2022/12/15 04:08:13;;;;;;;;;;;;;;;-5.63;85.45;100739.59;5080153;28;19920;-61
2022/12/15 04:10:38;;;;;;;;;;;;;;;-5.62;85.29;100730.06;5087177;28;19916;-60
2022/12/15 04:13:06;;;;;;;;;;;;;;;-5.60;85.49;100738.59;5083981;28;19962;-60
2022/12/15 04:15:31;;;;;;;;;;;;;;;-5.57;85.53;100738.47;5084715;28;19926;-60
2022/12/15 04:17:57;;;;;;;;;;;;;;;-5.53;85.61;100734.81;5093892;28;19998;-61
2022/12/15 04:20:22;;;;;;;;;;;;;;;-5.52;85.43;100735.66;5089720;28;19911;-60
2022/12/15 04:22:48;;;;;;;;;;;;;;;-5.53;85.47;100737.41;5081326;28;20568;-60
2022/12/15 05:33:52;;;;;;;;;;;;;;;-5.58;86.03;100761.81;5088379;28;19935;-60
2022/12/15 05:36:17;;;;;;;;;;;;;;;-5.57;85.91;100766.06;5089385;28;19916;-61
2022/12/15 05:38:42;;;;;;;;;;;;;;;-5.58;85.92;100773.00;5096801;28;20002;-58
2022/12/15 05:41:07;;;;;;;;;;;;;;;-5.61;86.09;100763.63;5086577;28;19916;-61
2022/12/15 05:43:32;;;;;;;;;;;;;;;-5.64;86.14;100771.53;5086311;28;20330;-60
2022/12/15 05:46:02;;;;;;;;;;;;;;;-5.68;86.03;100769.16;5089570;28;20042;-60
2022/12/15 05:48:27;;;;;;;;;;;;;;;-5.71;86.11;100771.88;5095892;28;19981;-61
2022/12/15 05:50:52;;;;;;;;;;;;;;;-5.71;86.08;100772.72;5087449;28;19916;-61
2022/12/15 05:53:17;;;;;;;;;;;;;;;-5.69;86.01;100778.66;5080171;28;19986;-60
2022/12/15 05:55:42;;;;;;;;;;;;;;;-5.66;86.00;100780.28;5087364;28;19920;-60
2022/12/15 05:58:07;;;;;;;;;;;;;;;-5.65;85.95;100785.38;5088356;28;19944;-61
2022/12/15 06:00:33;;;;;;;;;;;;;;;-5.62;86.26;100787.81;5085624;28;19923;-59
2022/12/15 06:02:58;;;;;;;;;;;;;;;-5.59;86.18;100784.25;5085826;28;19969;-61
2022/12/15 06:05:23;;;;;;;;;;;;;;;-5.64;86.25;100784.47;5089398;28;20042;-60
2022/12/15 06:07:48;;;;;;;;;;;;;;;-5.68;86.16;100787.25;5098123;28;19912;-60
2022/12/15 06:10:13;;;;;;;;;;;;;;;-5.72;86.33;100789.16;5094005;28;19926;-60
2022/12/15 06:12:39;;;;;;;;;;;;;;;-5.75;86.41;100793.63;5084249;28;20298;-60
2022/12/15 06:15:04;;;;;;;;;;;;;;;-5.74;86.45;100790.97;5092679;28;19927;-61
2022/12/15 06:17:30;;;;;;;;;;;;;;;-5.74;86.52;100792.72;5086734;28;19955;-62
2022/12/15 06:19:55;;;;;;;;;;;;;;;-5.77;86.61;100798.03;5093002;28;19912;-61
2022/12/15 06:22:21;;;;;;;;;;;;;;;-5.83;86.52;100806.88;5097318;28;19924;-61
2022/12/15 06:24:46;;;;;;;;;;;;;;;-5.85;86.31;100805.25;5081488;28;21082;-62
2022/12/15 06:27:11;;;;;;;;;;;;;;;-5.82;86.37;100803.38;5088175;28;19912;-60
2022/12/15 06:29:36;;;;;;;;;;;;;;;-5.80;86.58;100813.66;5086366;28;19930;-61
2022/12/15 06:32:03;;;;;;;;;;;;;;;-5.81;86.78;100809.38;5096402;28;19912;-61
2022/12/15 06:34:28;;;;;;;;;;;;;;;-5.84;86.64;100804.34;5085738;28;19934;-62
2022/12/15 06:36:53;;;;;;;;;;;;;;;-5.84;86.85;100804.34;5079970;28;20523;-60
2022/12/15 06:39:19;;;;;;;;;;;;;;;-5.83;86.83;100798.28;5076739;28;19974;-61
2022/12/15 06:41:44;;;;;;;;;;;;;;;-5.85;86.87;100794.91;5088446;28;19912;-61
2022/12/15 06:44:14;;;;;;;;;;;;;;;-5.84;87.14;100800.03;5087176;28;20553;-61
2022/12/15 06:46:39;;;;;;;;;;;;;;;-5.81;86.86;100804.22;5083236;28;20295;-60
2022/12/15 06:49:04;;;;;;;;;;;;;;;-5.80;86.80;100805.88;5084998;28;19916;-60
2022/12/15 06:51:29;;;;;;;;;;;;;;;-5.77;86.67;100810.97;5084456;28;20028;-61
2022/12/15 06:53:55;;;;;;;;;;;;;;;-5.77;86.57;100810.97;5080895;28;20411;-61
2022/12/15 06:56:21;;;;;;;;;;;;;;;-5.77;86.49;100808.38;5085063;28;19916;-61
2022/12/15 06:58:47;;;;;;;;;;;;;;;-5.78;86.40;100812.72;5086716;28;20481;-60
2022/12/15 07:01:12;;;;;;;;;;;;;;;-5.77;86.51;100813.53;5081068;28;19916;-60
2022/12/15 07:03:37;;;;;;;;;;;;;;;-5.79;86.59;100810.16;5088233;28;20002;-60
2022/12/15 07:06:08;;;;;;;;;;;;;;;-5.83;86.71;100801.69;5083918;28;19924;-60
2022/12/15 07:08:33;;;;;;;;;;;;;;;-5.85;86.71;100808.69;5094353;28;20139;-61
2022/12/15 07:10:58;;;;;;;;;;;;;;;-5.85;86.61;100803.50;5088977;28;20552;-60
2022/12/15 07:13:23;;;;;;;;;;;;;;;-5.81;86.42;100817.16;5099313;28;19962;-61
2022/12/15 07:15:48;;;;;;;;;;;;;;;-5.80;86.57;100811.06;5087775;28;20397;-60
2022/12/15 07:18:14;;;;;;;;;;;;;;;-5.81;86.47;100815.41;5097126;28;19951;-61
2022/12/15 07:20:39;;;;;;;;;;;;;;;-5.84;86.38;100819.88;5077135;28;19958;-61
2022/12/15 07:23:08;;;;;;;;;;;;;;;-5.90;86.17;100830.50;5083424;28;19965;-61
2022/12/15 07:25:36;;;;;;;;;;;;;;;-5.96;86.16;100822.13;5083903;28;20065;-60
2022/12/15 07:28:02;;;;;;;;;;;;;;;-5.96;86.17;100824.72;5081368;28;19966;-61
2022/12/15 07:30:27;;;;;;;;;;;;;;;-5.95;86.25;100835.88;5085767;28;19916;-60
2022/12/15 07:32:52;;;;;;;;;;;;;;;-5.93;86.30;100839.25;5088773;28;19912;-61
2022/12/15 07:35:17;;;;;;;;;;;;;;;-5.93;86.27;100834.91;5085219;28;19950;-61
2022/12/15 07:37:42;;;;;;;;;;;;;;;-5.90;86.45;100839.09;5096354;28;19916;-61
2022/12/15 07:40:08;;;;;;;;;;;;;;;-5.88;86.23;100833.84;5088733;28;19924;-61
2022/12/15 07:42:33;;;;;;;;;;;;;;;-5.88;86.47;100836.41;5096830;28;19917;-61
2022/12/15 07:44:58;;;;;;;;;;;;;;;-5.87;86.43;100833.78;5092042;28;19912;-62
2022/12/15 07:47:23;;;;;;;;;;;;;;;-5.86;86.35;100840.63;5089045;28;19938;-61
2022/12/15 07:49:49;;;;;;;;;;;;;;;-5.86;86.38;100842.38;5082937;28;19912;-61
2022/12/15 07:52:14;;;;;;;;;;;;;;;-5.85;86.63;100842.28;5096829;28;20466;-60
2022/12/15 07:54:39;;;;;;;;;;;;;;;-5.84;86.50;100843.97;5089839;28;20605;-61
2022/12/15 07:57:06;;;;;;;;;;;;;;;-5.84;86.57;100848.31;5089230;28;19915;-61
2022/12/15 07:59:32;;;;;;;;;;;;;;;-5.86;86.76;100845.78;5100740;28;20390;-62
2022/12/15 08:01:59;;;;;;;;;;;;;;;-5.84;86.88;100853.47;5091452;28;19923;-61
2022/12/15 08:04:26;;;;;;;;;;;;;;;-5.83;86.70;100865.50;5088230;28;21370;-60
2022/12/15 08:06:54;;;;;;;;;;;;;;;-5.81;86.77;100859.34;5081879;28;19913;-60
2022/12/15 08:09:20;;;;;;;;;;;;;;;-5.78;86.95;100863.56;5093865;28;20287;-61
2022/12/15 08:11:45;;;;;;;;;;;;;;;-5.78;87.22;100861.84;5090493;28;19916;-60
2022/12/15 08:14:10;;;;;;;;;;;;;;;-5.78;87.26;100864.44;5088275;28;20458;-60
2022/12/15 08:16:36;;;;;;;;;;;;;;;-5.77;87.29;100862.69;5086956;28;19949;-61
2022/12/15 08:19:02;;;;;;;;;;;;;;;-5.74;87.36;100863.38;5099708;28;19942;-61
2022/12/15 08:21:30;;;;;;;;;;;;;;;-5.70;87.38;100864.09;5089950;28;19951;-61
2022/12/15 08:23:55;;;;;;;;;;;;;;;-5.65;87.42;100862.97;5091420;28;20012;-61
2022/12/15 08:26:20;;;;;;;;;;;;;;;-5.60;87.27;100870.53;5090320;28;20006;-59
2022/12/15 08:28:45;;;;;;;;;;;;;;;-5.54;87.46;100865.06;5094179;28;19961;-61
2022/12/15 08:31:15;;;;;;;;;;;;;;;-5.45;87.58;100872.44;5091663;28;19916;-58
2022/12/15 08:33:41;;;;;;;;;;;;;;;-5.36;87.78;100864.25;5091808;28;19951;-60
2022/12/15 08:36:08;;;;;;;;;;;;;;;-5.31;87.83;100859.72;5090352;28;19990;-60
2022/12/15 08:38:34;;;;;;;;;;;;;;;-5.27;87.85;100859.56;5096386;28;19919;-60
2022/12/15 08:41:09;;;;;;;;;;;;;;;-5.17;88.11;100866.88;5087790;28;20403;-60
2022/12/15 08:43:35;;;;;;;;;;;;;;;-5.04;88.27;100872.31;5097796;28;20003;-60
2022/12/15 08:46:00;;;;;;;;;;;;;;;-4.89;88.46;100873.38;5098889;28;20010;-60
2022/12/15 08:48:25;;;;;;;;;;;;;;;-4.79;88.48;100870.25;5092469;28;19912;-58
2022/12/15 08:50:50;;;;;;;;;;;;;;;-4.78;88.29;100868.50;5093805;28;19955;-61
2022/12/15 08:53:16;;;;;;;;;;;;;;;-4.73;88.29;100869.13;5093148;28;20398;-60
2022/12/15 08:55:41;;;;;;;;;;;;;;;-4.60;88.27;100879.75;5092049;28;19916;-60
2022/12/15 08:58:06;;;;;;;;;;;;;;;-4.49;88.29;100875.72;5084852;28;20011;-60
2022/12/15 09:00:31;;;;;;;;;;;;;;;-4.41;88.18;100893.50;5093185;28;20363;-58
2022/12/15 09:02:57;;;;;;;;;;;;;;;-4.42;87.88;100889.22;5088978;28;19970;-59
2022/12/15 09:05:23;;;;;;;;;;;;;;;-4.43;87.63;100890.97;5080627;28;19916;-61
2022/12/15 09:07:48;;;;;;;;;;;;;;;-4.37;87.74;100888.09;5089525;28;19941;-61
2022/12/15 09:10:13;;;;;;;;;;;;;;;-4.33;87.56;100888.81;5087427;28;19920;-60
2022/12/15 09:12:38;;;;;;;;;;;;;;;-4.33;87.46;100894.00;5106076;28;20006;-60
2022/12/15 09:15:04;;;;;;;;;;;;;;;-4.35;87.29;100898.38;5090136;28;19916;-60
2022/12/15 09:17:29;;;;;;;;;;;;;;;-4.36;87.27;100904.47;5083194;28;19923;-60
2022/12/15 09:19:55;;;;;;;;;;;;;;;-4.35;87.33;100898.38;5087899;28;20403;-60
2022/12/15 09:22:20;;;;;;;;;;;;;;;-4.29;87.46;100908.47;5089164;28;19982;-60
2022/12/15 09:24:45;;;;;;;;;;;;;;;-4.20;87.62;100915.78;5090219;28;20006;-61
2022/12/15 09:27:10;;;;;;;;;;;;;;;-4.14;87.72;100912.06;5089000;28;20403;-59
2022/12/15 09:29:36;;;;;;;;;;;;;;;-4.10;87.73;100917.00;5084591;28;19972;-59
2022/12/15 09:32:02;;;;;;;;;;;;;;;-4.01;87.75;100912.31;5085399;28;20572;-60
2022/12/15 09:34:27;;;;;;;;;;;;;;;-3.93;87.84;100923.97;5089787;28;20298;-60
2022/12/15 09:36:52;;;;;;;;;;;;;;;-3.86;87.65;100924.50;5087494;28;20022;-60
2022/12/15 09:39:18;;;;;;;;;;;;;;;-3.78;87.81;100924.94;5079859;28;19922;-60
2022/12/15 09:41:48;;;;;;;;;;;;;;;-3.70;87.80;100933.22;5083082;28;19927;-61
2022/12/15 09:44:16;;;;;;;;;;;;;;;-3.66;87.71;100934.72;5087699;28;19936;-60
2022/12/15 09:47:00;;;;;;;;;;;;;;;-3.60;87.80;100939.59;5085257;28;19920;-60
2022/12/15 09:49:37;;;;;;;;;;;;;;;-3.56;87.72;100943.72;5085826;28;19919;-60
2022/12/15 09:52:04;;;;;;;;;;;;;;;-3.55;87.68;100945.38;5083489;28;19927;-60
2022/12/15 09:54:30;;;;;;;;;;;;;;;-3.52;87.62;100944.38;5097891;28;19951;-61
2022/12/15 09:56:56;;;;;;;;;;;;;;;-3.49;87.57;100946.81;5092753;28;19912;-60
2022/12/15 09:59:45;;;;;;;;;;;;;;;-3.47;87.55;100950.19;5084296;28;19978;-60
2022/12/15 10:02:19;;;;;;;;;;;;;;;-3.45;87.55;100954.41;5084480;28;19915;-60
2022/12/15 10:04:54;;;;;;;;;;;;;;;-3.42;87.65;100956.00;5087711;28;19923;-60
2022/12/15 10:07:26;;;;;;;;;;;;;;;-3.38;87.68;100954.09;5090244;28;19965;-60
2022/12/15 10:09:51;;;;;;;;;;;;;;;-3.33;87.79;100945.13;5099495;28;19989;-60
2022/12/15 10:12:20;;;;;;;;;;;;;;;-3.26;87.84;100951.69;5086640;28;20375;-61
2022/12/15 10:14:51;;;;;;;;;;;;;;;-3.16;88.06;100946.88;5089496;28;19920;-60
2022/12/15 10:17:24;;;;;;;;;;;;;;;-3.10;88.05;100949.13;5082675;28;19916;-60
2022/12/15 10:20:05;;;;;;;;;;;;;;;-3.06;87.99;100952.41;5088389;28;19935;-60
2022/12/15 10:22:32;;;;;;;;;;;;;;;-3.04;87.92;100948.81;5083551;28;19943;-61
2022/12/15 10:25:00;;;;;;;;;;;;;;;-3.00;87.84;100937.31;5087131;28;19923;-60
2022/12/15 10:27:29;;;;;;;;;;;;;;;-3.02;87.70;100926.19;5083749;28;19912;-60
2022/12/15 10:30:05;;;;;;;;;;;;;;;-2.92;87.72;100927.34;5086704;28;19912;-61
2022/12/15 10:32:39;;;;;;;;;;;;;;;-2.84;87.99;100930.41;5087404;28;19916;-62
2022/12/15 10:35:26;;;;;;;;;;;;;;;-2.73;87.95;100944.56;5085747;28;19942;-60
2022/12/15 10:37:55;;;;;;;;;;;;;;;-2.66;88.01;100935.50;5081852;28;19923;-61
2022/12/15 10:40:40;;;;;;;;;;;;;;;-2.56;88.13;100939.28;5084296;28;19919;-61
2022/12/15 10:43:12;;;;;;;;;;;;;;;-2.46;88.16;100935.25;5083723;28;20302;-61
2022/12/15 10:45:37;;;;;;;;;;;;;;;-2.40;88.01;100940.09;5093482;28;19916;-60
2022/12/15 10:48:05;;;;;;;;;;;;;;;-2.35;87.99;100940.69;5085274;28;19912;-61
2022/12/15 10:50:31;;;;;;;;;;;;;;;-2.29;88.13;100940.38;5082488;28;19916;-60
2022/12/15 10:52:56;;;;;;;;;;;;;;;-2.22;88.08;100935.66;5098156;28;19912;-60
2022/12/15 10:55:35;;;;;;;;;;;;;;;-2.13;88.03;100936.88;5089145;28;19928;-61
2022/12/15 10:58:01;;;;;;;;;;;;;;;-2.07;87.96;100936.53;5088042;28;19916;-61
2022/12/15 11:00:30;;;;;;;;;;;;;;;-1.99;88.16;100936.94;5085955;28;19916;-61
2022/12/15 11:02:56;;;;;;;;;;;;;;;-1.92;88.12;100938.25;5083406;28;19969;-60
2022/12/15 11:05:22;;;;;;;;;;;;;;;-1.83;88.10;100937.72;5090096;28;19959;-61
2022/12/15 11:07:55;;;;;;;;;;;;;;;-1.81;87.82;100935.88;5081886;28;19924;-61
2022/12/15 11:10:22;;;;;;;;;;;;;;;-1.74;87.73;100931.13;5094016;28;19935;-61
2022/12/15 11:12:55;;;;;;;;;;;;;;;-1.68;87.80;100929.03;5090709;28;19958;-61
2022/12/15 11:15:21;;;;;;;;;;;;;;;-1.59;87.83;100928.47;5096085;28;19923;-59
2022/12/15 11:17:46;;;;;;;;;;;;;;;-1.51;87.70;100928.03;5088505;28;19916;-61
2022/12/15 11:20:19;;;;;;;;;;;;;;;-1.41;87.70;100917.91;5089788;28;19920;-60
2022/12/15 11:22:44;;;;;;;;;;;;;;;-1.30;87.62;100915.47;5089851;28;20303;-61
2022/12/15 11:25:28;;;;;;;;;;;;;;;-1.20;87.42;100918.34;5090475;28;20523;-60
2022/12/15 11:27:54;;;;;;;;;;;;;;;-1.08;87.49;100921.06;5090082;28;20315;-60
2022/12/15 11:30:23;;;;;;;;;;;;;;;-1.01;87.11;100931.94;5086913;28;19954;-60
2022/12/15 11:32:52;;;;;;;;;;;;;;;-0.95;87.03;100921.13;5091687;28;19919;-62
2022/12/15 11:35:20;;;;;;;;;;;;;;;-0.86;87.01;100932.78;5089399;28;20003;-60
2022/12/15 11:37:47;;;;;;;;;;;;;;;-0.78;86.79;100931.38;5088129;28;20484;-61
2022/12/15 11:40:29;;;;;;;;;;;;;;;-0.65;86.56;100934.88;5081267;28;21713;-61
2022/12/15 11:43:13;;;;;;;;;;;;;;;-0.56;86.30;100940.47;5087731;28;19928;-61
2022/12/15 11:45:39;;;;;;;;;;;;;;;-0.42;86.44;100935.19;5089184;28;19999;-62
2022/12/15 11:48:19;;;;;;;;;;;;;;;-0.33;86.36;100926.75;5089951;28;20004;-61
2022/12/15 11:50:51;;;;;;;;;;;;;;;-0.26;85.94;100925.47;5087300;28;19916;-61
2022/12/15 11:53:32;;;;;;;;;;;;;;;-0.15;85.62;100925.59;5099838;28;19913;-61
2022/12/15 11:56:09;;;;;;;;;;;;;;;0.05;85.46;100937.34;5095445;28;19924;-61
2022/12/15 11:58:40;;;;;;;;;;;;;;;0.14;84.66;100939.34;5089947;28;19916;-60
2022/12/15 12:01:22;;;;;;;;;;;;;;;0.18;84.20;100926.91;5094748;28;19939;-60
2022/12/15 12:03:56;;;;;;;;;;;;;;;0.37;84.35;100921.31;5095726;28;20355;-61
2022/12/15 12:06:30;;;;;;;;;;;;;;;0.52;83.91;100930.69;5089091;28;19919;-60
2022/12/15 12:09:11;;;;;;;;;;;;;;;0.73;83.92;100923.19;5105690;28;19962;-61
2022/12/15 12:11:44;;;;;;;;;;;;;;;0.90;84.18;100928.94;5098209;28;19951;-61
2022/12/15 12:14:35;;;;;;;;;;;;;;;1.08;83.85;100920.72;5086887;28;20015;-61
2022/12/15 12:17:05;;;;;;;;;;;;;;;1.17;83.00;100913.09;5098377;28;19919;-61
2022/12/15 12:19:42;;;;;;;;;;;;;;;1.31;82.27;100909.47;5088667;28;19912;-61
2022/12/15 12:22:25;;;;;;;;;;;;;;;1.34;81.25;100904.03;5086845;28;20376;-61
2022/12/15 12:24:55;;;;;;;;;;;;;;;1.49;81.26;100908.19;5089618;28;19923;-61
2022/12/15 12:27:59;;;;;;;;;;;;;;;1.72;80.91;100908.25;5087070;28;19920;-61
2022/12/15 12:30:27;;;;;;;;;;;;;;;2.02;80.44;100903.38;5036270;28;19913;-61
2022/12/15 12:32:58;;;;;;;;;;;;;;;2.23;79.83;100898.34;5055839;28;20387;-61
2022/12/15 12:35:39;;;;;;;;;;;;;;;2.48;78.89;100892.06;5070683;28;19923;-61
2022/12/15 12:38:05;;;;;;;;;;;;;;;2.64;77.96;100895.19;5088400;28;19920;-61
2022/12/15 12:40:39;;;;;;;;;;;;;;;2.71;77.13;100890.31;5090923;28;19916;-61
2022/12/15 12:43:06;;;;;;;;;;;;;;;2.80;77.08;100889.59;5095750;28;19954;-61
2022/12/15 12:45:37;;;;;;;;;;;;;;;2.91;76.35;100894.00;5090005;28;20514;-61
2022/12/15 12:48:08;;;;;;;;;;;;;;;2.87;75.90;100897.81;5088782;28;19954;-61
2022/12/15 12:50:34;;;;;;;;;;;;;;;2.94;75.38;100893.78;5089699;28;19967;-61
2022/12/15 12:53:00;;;;;;;;;;;;;;;2.92;74.87;100886.03;5084841;28;19951;-61
2022/12/15 12:55:28;;;;;;;;;;;;;;;2.97;74.79;100878.63;5079282;28;19928;-61
2022/12/15 12:57:54;;;;;;;;;;;;;;;2.98;74.39;100882.91;5087116;28;19920;-61
2022/12/15 13:00:25;;;;;;;;;;;;;;;2.99;74.05;100884.59;5084242;28;20035;-61
2022/12/15 13:02:54;;;;;;;;;;;;;;;3.03;74.25;100885.16;5087991;28;20008;-61
2022/12/15 13:05:27;;;;;;;;;;;;;;;3.15;73.85;100885.97;5088391;28;19916;-60
2022/12/15 13:07:54;;;;;;;;;;;;;;;3.37;73.82;100881.53;5080461;28;19916;-61
2022/12/15 13:10:21;;;;;;;;;;;;;;;3.71;74.38;100879.63;5086004;28;19916;-61
2022/12/15 13:12:47;;;;;;;;;;;;;;;4.06;73.65;100877.69;5088630;28;19973;-61
2022/12/15 13:15:28;;;;;;;;;;;;;;;4.11;72.48;100873.72;5083458;28;20454;-61
2022/12/15 13:17:55;;;;;;;;;;;;;;;4.07;71.98;100868.84;5080071;28;20018;-61
2022/12/15 13:20:21;;;;;;;;;;;;;;;3.96;71.40;100867.94;5084572;28;19916;-61
2022/12/15 13:22:47;;;;;;;;;;;;;;;3.82;70.91;100859.53;5078694;28;20006;-61
2022/12/15 13:25:31;;;;;;;;;;;;;;;3.86;71.15;100855.69;5085007;28;20029;-62
2022/12/15 13:27:58;;;;;;;;;;;;;;;4.00;71.02;100858.00;5089350;28;19980;-61
2022/12/15 13:30:23;;;;;;;;;;;;;;;4.02;71.05;100856.91;5086197;28;19916;-60
2022/12/15 13:33:12;;;;;;;;;;;;;;;4.06;70.61;100854.88;5087135;28;19924;-64
2022/12/15 13:35:41;;;;;;;;;;;;;;;4.01;70.81;100849.16;5080693;28;20327;-61
2022/12/15 13:38:15;;;;;;;;;;;;;;;4.16;70.61;100841.78;5101430;28;19935;-61
2022/12/15 13:40:43;;;;;;;;;;;;;;;4.30;70.38;100844.06;5089475;28;19919;-60
2022/12/15 13:43:30;;;;;;;;;;;;;;;4.29;70.19;100847.66;5085442;28;19952;-61
2022/12/15 13:45:58;;;;;;;;;;;;;;;4.33;69.77;100844.66;5078183;28;19959;-63
2022/12/15 13:48:29;;;;;;;;;;;;;;;4.26;69.67;100838.25;5085096;28;19916;-61
2022/12/15 13:51:01;;;;;;;;;;;;;;;4.07;69.36;100838.16;5077776;28;19935;-62
2022/12/15 13:53:27;;;;;;;;;;;;;;;3.87;69.17;100829.31;5082172;28;20006;-60
2022/12/15 13:56:13;;;;;;;;;;;;;;;3.82;69.43;100826.22;5079531;28;19923;-61
2022/12/15 13:58:42;;;;;;;;;;;;;;;3.81;69.70;100827.19;5083023;28;20539;-59
2022/12/15 14:01:17;;;;;;;;;;;;;;;3.79;69.83;100821.22;5081289;28;20003;-60
2022/12/15 14:03:55;;;;;;;;;;;;;;;3.56;69.63;100823.13;5085255;28;19924;-61
2022/12/15 14:06:21;;;;;;;;;;;;;;;3.31;69.63;100819.03;5079418;28;19924;-61
2022/12/15 14:08:46;;;;;;;;;;;;;;;3.23;70.30;100825.88;5089118;28;19922;-62
2022/12/15 14:11:19;;;;;;;;;;;;;;;3.22;70.63;100826.84;5088352;28;19920;-61
2022/12/15 14:13:44;;;;;;;;;;;;;;;3.16;71.27;100830.75;5085280;28;19916;-62
2022/12/15 14:16:13;;;;;;;;;;;;;;;3.19;71.55;100834.94;5078693;28;20386;-61
2022/12/15 14:18:39;;;;;;;;;;;;;;;3.27;71.97;100837.78;5077453;28;19923;-59
2022/12/15 14:21:06;;;;;;;;;;;;;;;3.36;72.11;100831.78;5077148;28;19916;-61
2022/12/15 14:23:39;;;;;;;;;;;;;;;3.52;72.28;100828.75;5084683;28;19920;-60
2022/12/15 14:26:05;;;;;;;;;;;;;;;3.58;71.86;100830.88;5083761;28;20283;-61
2022/12/15 14:28:32;;;;;;;;;;;;;;;3.69;71.93;100822.94;5077882;28;19984;-60
2022/12/15 14:31:13;;;;;;;;;;;;;;;3.64;71.66;100817.25;5079004;28;19923;-58
2022/12/15 14:33:40;;;;;;;;;;;;;;;3.55;72.16;100813.59;5078826;28;19923;-58
2022/12/15 14:36:07;;;;;;;;;;;;;;;3.50;72.31;100814.94;5087554;28;20427;-60
2022/12/15 14:38:48;;;;;;;;;;;;;;;3.42;72.57;100811.13;5083407;28;20294;-61
2022/12/15 14:41:19;;;;;;;;;;;;;;;3.27;72.51;100812.38;5085097;28;20413;-61
2022/12/15 14:43:45;;;;;;;;;;;;;;;3.19;73.05;100806.91;5084487;28;19931;-60
2022/12/15 14:46:18;;;;;;;;;;;;;;;3.17;72.44;100810.59;5092553;28;19956;-60
2022/12/15 14:48:54;;;;;;;;;;;;;;;3.11;72.24;100806.69;5083564;28;19970;-62
2022/12/15 14:51:20;;;;;;;;;;;;;;;3.06;72.39;100801.81;5090945;28;19938;-59
2022/12/15 14:53:50;;;;;;;;;;;;;;;3.01;72.61;100801.34;5090020;28;19957;-60
2022/12/15 14:56:23;;;;;;;;;;;;;;;2.99;72.86;100802.44;5087434;28;19924;-58
2022/12/15 14:59:05;;;;;;;;;;;;;;;2.95;72.90;100806.25;5080412;28;19977;-60
2022/12/15 15:01:41;;;;;;;;;;;;;;;2.89;72.74;100802.34;5078715;28;19943;-61
2022/12/15 15:04:25;;;;;;;;;;;;;;;2.84;72.37;100808.88;5080610;28;19976;-60
2022/12/15 15:06:58;;;;;;;;;;;;;;;2.75;72.12;100795.56;5080670;28;19916;-62